createdAt,value
2023-04-09T00:00:21.760Z,10.15
2023-04-09T00:02:49.545Z,10.16
2023-04-09T00:05:18.801Z,10.11
2023-04-09T00:07:46.550Z,10.07
2023-04-09T00:10:14.311Z,10.04
2023-04-09T00:12:42.040Z,10.03
2023-04-09T00:15:15.033Z,9.97
2023-04-09T00:17:48.657Z,9.91
2023-04-09T00:20:17.825Z,9.92
2023-04-09T00:22:45.517Z,9.94
2023-04-09T00:25:13.453Z,9.88
2023-04-09T00:27:41.147Z,9.85
2023-04-09T00:30:10.513Z,9.78
2023-04-09T00:32:38.277Z,9.72
2023-04-09T00:35:06.807Z,9.65
2023-04-09T00:37:35.913Z,9.72
2023-04-09T00:40:03.748Z,9.74
2023-04-09T00:42:33.240Z,9.68
2023-04-09T00:45:01.060Z,9.66
2023-04-09T00:47:30.983Z,9.71
2023-04-09T00:49:58.937Z,9.66
2023-04-09T00:52:26.988Z,9.59
2023-04-09T00:54:56.124Z,9.51
2023-04-09T00:57:24.000Z,9.51
2023-04-09T00:59:51.958Z,9.53
2023-04-09T01:02:20.778Z,9.57
2023-04-09T01:04:49.150Z,9.50
2023-04-09T01:07:26.929Z,9.52
2023-04-09T01:10:04.534Z,9.53
2023-04-09T01:12:44.948Z,9.51
2023-04-09T01:15:19.255Z,9.47
2023-04-09T01:17:51.616Z,9.49
2023-04-09T01:20:23.964Z,9.50
2023-04-09T01:23:02.408Z,9.42
2023-04-09T01:25:44.978Z,9.49
2023-04-09T01:28:19.320Z,9.48
2023-04-09T01:30:50.940Z,9.47
2023-04-09T01:33:20.806Z,9.44
2023-04-09T01:35:50.586Z,9.47
2023-04-09T01:38:20.716Z,9.41
2023-04-09T01:40:49.871Z,9.37
2023-04-09T01:43:20.109Z,9.38
2023-04-09T01:45:49.163Z,9.36
2023-04-09T01:48:17.751Z,9.31
2023-04-09T01:50:46.165Z,9.31
2023-04-09T01:53:14.110Z,9.31
2023-04-09T01:55:41.863Z,9.37
2023-04-09T01:58:09.592Z,9.32
2023-04-09T02:00:41.037Z,9.30
2023-04-09T02:03:12.413Z,9.28
2023-04-09T02:05:45.755Z,9.28
2023-04-09T02:08:20.213Z,9.34
2023-04-09T02:10:55.701Z,9.38
2023-04-09T02:13:25.865Z,9.42
2023-04-09T02:15:58.848Z,9.43
2023-04-09T02:18:28.577Z,9.43
2023-04-09T02:20:57.182Z,9.44
2023-04-09T02:23:24.928Z,9.49
2023-04-09T02:25:53.644Z,9.44
2023-04-09T02:28:21.352Z,9.49
2023-04-09T02:30:49.094Z,9.53
2023-04-09T02:33:18.307Z,9.52
2023-04-09T02:35:46.055Z,9.49
2023-04-09T02:38:15.964Z,9.45
2023-04-09T02:40:44.155Z,9.43
2023-04-09T02:43:11.905Z,9.39
2023-04-09T02:45:39.742Z,9.37
2023-04-09T02:48:07.544Z,9.35
2023-04-09T02:50:37.921Z,9.31
2023-04-09T02:53:05.828Z,9.29
2023-04-09T02:55:33.809Z,9.18
2023-04-09T02:58:01.635Z,9.21
2023-04-09T03:00:29.351Z,9.19
2023-04-09T03:02:58.028Z,9.21
2023-04-09T03:05:26.191Z,9.18
2023-04-09T03:07:56.107Z,9.18
2023-04-09T03:10:23.980Z,9.11
2023-04-09T03:12:51.793Z,9.14
2023-04-09T03:15:19.587Z,9.12
2023-04-09T03:17:47.317Z,9.04
2023-04-09T03:20:15.068Z,8.99
2023-04-09T03:22:43.170Z,8.99
2023-04-09T03:25:24.606Z,8.98
2023-04-09T03:27:55.122Z,8.96
2023-04-09T03:30:37.077Z,8.89
2023-04-09T03:33:07.206Z,8.87
2023-04-09T03:35:44.568Z,8.82
2023-04-09T03:38:13.403Z,8.82
2023-04-09T03:40:42.690Z,8.78
2023-04-09T03:43:10.464Z,8.76
2023-04-09T03:45:41.234Z,8.75
2023-04-09T03:48:19.964Z,8.77
2023-04-09T03:50:47.983Z,8.72
2023-04-09T03:53:21.894Z,8.64
2023-04-09T03:55:51.021Z,8.60
2023-04-09T03:58:24.548Z,8.62
2023-04-09T04:00:53.198Z,8.62
2023-04-09T04:03:33.443Z,8.60
2023-04-09T04:06:15.165Z,8.59
2023-04-09T04:08:51.291Z,8.61
2023-04-09T04:11:24.479Z,8.58
2023-04-09T04:13:55.860Z,8.59
2023-04-09T04:16:24.856Z,8.55
2023-04-09T04:18:54.065Z,8.52
2023-04-09T04:21:22.349Z,8.53
2023-04-09T04:23:58.008Z,8.48
2023-04-09T04:26:30.266Z,8.53
2023-04-09T04:28:58.140Z,8.49
2023-04-09T04:31:37.303Z,8.40
2023-04-09T04:34:05.731Z,8.37
2023-04-09T04:36:33.539Z,8.37
2023-04-09T04:39:01.658Z,8.28
2023-04-09T04:41:42.219Z,8.28
2023-04-09T04:44:21.443Z,8.34
2023-04-09T04:46:52.676Z,8.24
2023-04-09T04:49:20.447Z,8.23
2023-04-09T04:51:49.329Z,8.21
2023-04-09T04:54:18.211Z,8.15
2023-04-09T04:56:59.252Z,8.13
2023-04-09T04:59:38.546Z,8.13
2023-04-09T05:02:07.664Z,8.12
2023-04-09T05:05:02.729Z,8.11
2023-04-09T05:07:39.154Z,8.10
2023-04-09T05:10:08.823Z,8.08
2023-04-09T05:12:42.258Z,8.05
2023-04-09T05:15:12.241Z,8.04
2023-04-09T05:17:39.959Z,8.02
2023-04-09T05:20:09.836Z,8.00
2023-04-09T05:22:47.989Z,8.09
2023-04-09T05:25:17.281Z,8.12
2023-04-09T05:27:46.579Z,8.16
2023-04-09T05:30:14.484Z,8.15
2023-04-09T05:32:43.215Z,8.20
2023-04-09T05:35:11.297Z,8.14
2023-04-09T05:37:43.412Z,8.07
2023-04-09T05:40:13.515Z,8.17
2023-04-09T05:42:41.869Z,8.12
2023-04-09T05:45:19.942Z,8.16
2023-04-09T05:47:51.977Z,8.08
2023-04-09T05:50:22.783Z,8.12
2023-04-09T05:52:54.245Z,8.18
2023-04-09T05:55:23.640Z,8.22
2023-04-09T05:57:57.236Z,8.23
2023-04-09T06:00:26.472Z,8.24
2023-04-09T06:02:54.314Z,8.27
2023-04-09T06:05:22.070Z,8.27
2023-04-09T06:07:49.805Z,8.27
2023-04-09T06:10:18.008Z,8.31
2023-04-09T06:12:47.888Z,8.34
2023-04-09T06:15:16.068Z,8.37
2023-04-09T06:17:46.861Z,8.41
2023-04-09T06:20:14.747Z,8.45
2023-04-09T06:22:42.432Z,8.51
2023-04-09T06:25:10.533Z,8.53
2023-04-09T06:27:38.297Z,8.58
2023-04-09T06:30:07.442Z,8.61
2023-04-09T06:32:46.923Z,8.65
2023-04-09T06:35:24.089Z,8.70
2023-04-09T06:37:51.861Z,8.72
2023-04-09T06:40:22.327Z,8.81
2023-04-09T06:42:53.104Z,8.85
2023-04-09T06:45:27.579Z,8.93
2023-04-09T06:47:58.219Z,8.99
2023-04-09T06:50:27.589Z,9.03
2023-04-09T06:52:55.732Z,9.07
2023-04-09T06:55:23.689Z,9.13
2023-04-09T06:57:51.422Z,9.13
2023-04-09T07:00:19.502Z,9.20
2023-04-09T07:02:47.384Z,9.22
2023-04-09T07:05:15.394Z,9.24
2023-04-09T07:07:44.746Z,9.27
2023-04-09T07:10:12.626Z,9.32
2023-04-09T07:12:40.371Z,9.40
2023-04-09T07:15:09.266Z,9.44
2023-04-09T07:17:37.093Z,9.50
2023-04-09T07:20:05.530Z,9.49
2023-04-09T07:22:33.332Z,9.47
2023-04-09T07:25:02.550Z,9.48
2023-04-09T07:27:30.390Z,9.57
2023-04-09T07:29:59.062Z,9.59
2023-04-09T07:32:28.390Z,9.63
2023-04-09T07:34:57.705Z,9.58
2023-04-09T07:37:25.413Z,9.63
2023-04-09T07:39:56.557Z,9.67
2023-04-09T07:42:25.683Z,9.72
2023-04-09T07:44:53.701Z,9.72
2023-04-09T07:47:22.345Z,9.79
2023-04-09T07:49:50.461Z,9.81
2023-04-09T07:52:18.214Z,9.85
2023-04-09T07:54:46.033Z,9.93
2023-04-09T07:57:13.793Z,9.93
2023-04-09T07:59:43.021Z,9.95
2023-04-09T08:02:13.484Z,10.02
2023-04-09T08:04:42.816Z,10.03
2023-04-09T08:07:11.482Z,10.09
2023-04-09T08:09:39.183Z,10.05
2023-04-09T08:12:06.951Z,10.19
2023-04-09T08:14:34.838Z,10.20
2023-04-09T08:17:03.932Z,10.26
2023-04-09T08:19:34.517Z,10.23
2023-04-09T08:22:02.576Z,10.28
2023-04-09T08:24:30.389Z,10.31
2023-04-09T08:26:58.641Z,10.31
2023-04-09T08:29:26.564Z,10.37
2023-04-09T08:31:54.357Z,10.37
2023-04-09T08:34:23.448Z,10.47
2023-04-09T08:36:51.333Z,10.50
2023-04-09T08:39:20.146Z,10.56
2023-04-09T08:41:48.555Z,10.53
2023-04-09T08:44:16.690Z,10.59
2023-04-09T08:46:44.730Z,10.63
2023-04-09T08:49:13.097Z,10.70
2023-04-09T08:51:47.357Z,10.71
2023-04-09T08:54:17.016Z,10.73
2023-04-09T08:56:44.828Z,10.77
2023-04-09T08:59:12.591Z,10.79
2023-04-09T09:01:40.525Z,10.81
2023-04-09T09:04:11.024Z,10.83
2023-04-09T09:06:40.934Z,10.80
2023-04-09T09:09:11.940Z,10.87
2023-04-09T09:11:41.409Z,10.89
2023-04-09T09:14:10.805Z,10.92
2023-04-09T09:16:42.844Z,10.98
2023-04-09T09:19:10.950Z,11.03
2023-04-09T09:21:38.699Z,11.10
2023-04-09T09:24:18.091Z,10.96
2023-04-09T09:26:45.880Z,11.22
2023-04-09T09:29:13.774Z,11.18
2023-04-09T09:31:49.210Z,11.22
2023-04-09T09:34:17.890Z,11.31
2023-04-09T09:36:46.416Z,11.44
2023-04-09T09:39:17.468Z,11.53
2023-04-09T09:41:47.360Z,11.60
2023-04-09T09:44:32.138Z,11.64
2023-04-09T09:47:00.637Z,11.72
2023-04-09T09:49:28.410Z,11.86
2023-04-09T09:52:00.588Z,11.87
2023-04-09T09:54:40.980Z,11.92
2023-04-09T09:57:10.472Z,12.08
2023-04-09T09:59:41.370Z,12.21
2023-04-09T10:02:16.811Z,12.21
2023-04-09T10:04:45.286Z,12.37
2023-04-09T10:07:16.043Z,12.45
2023-04-09T10:09:50.494Z,12.46
2023-04-09T10:12:25.841Z,12.66
2023-04-09T10:14:56.515Z,12.90
2023-04-09T10:17:24.786Z,13.25
2023-04-09T10:20:01.176Z,13.25
2023-04-09T10:22:33.031Z,13.53
2023-04-09T10:25:02.715Z,13.91
2023-04-09T10:27:31.142Z,14.31
2023-04-09T10:30:00.152Z,14.55
2023-04-09T10:32:28.810Z,14.80
2023-04-09T10:34:59.413Z,15.17
2023-04-09T10:37:29.902Z,15.52
2023-04-09T10:39:58.661Z,15.47
2023-04-09T10:42:33.215Z,15.72
2023-04-09T10:45:11.586Z,15.94
2023-04-09T10:47:41.383Z,15.63
2023-04-09T10:50:17.130Z,15.52
2023-04-09T10:52:45.066Z,15.08
2023-04-09T10:55:37.436Z,15.44
2023-04-09T10:58:12.637Z,16.14
2023-04-09T11:00:43.003Z,15.87
2023-04-09T11:03:22.850Z,15.40
2023-04-09T11:05:54.776Z,15.23
2023-04-09T11:08:23.060Z,15.58
2023-04-09T11:10:52.320Z,15.66
2023-04-09T11:13:24.148Z,15.23
2023-04-09T11:15:52.297Z,15.16
2023-04-09T11:18:24.572Z,15.85
2023-04-09T11:20:55.692Z,15.44
2023-04-09T11:23:24.437Z,15.15
2023-04-09T11:25:53.711Z,16.03
2023-04-09T11:28:25.623Z,17.19
2023-04-09T11:30:53.676Z,17.15
2023-04-09T11:33:22.349Z,17.02
2023-04-09T11:35:50.318Z,16.48
2023-04-09T11:38:18.752Z,16.05
2023-04-09T11:40:49.242Z,16.15
2023-04-09T11:43:18.100Z,16.38
2023-04-09T11:45:48.562Z,16.23
2023-04-09T11:48:18.503Z,17.39
2023-04-09T11:50:48.005Z,17.44
2023-04-09T11:53:23.758Z,16.95
2023-04-09T11:55:52.549Z,18.16
2023-04-09T11:58:23.763Z,17.77
2023-04-09T12:00:56.571Z,17.03
2023-04-09T12:03:30.785Z,16.54
2023-04-09T12:06:01.698Z,16.27
2023-04-09T12:08:29.547Z,16.05
2023-04-09T12:10:57.565Z,15.90
2023-04-09T12:13:33.980Z,15.82
2023-04-09T12:16:03.596Z,15.80
2023-04-09T12:18:31.412Z,15.74
2023-04-09T12:21:01.016Z,15.64
2023-04-09T12:23:28.622Z,15.63
2023-04-09T12:25:56.260Z,16.03
2023-04-09T12:28:23.971Z,15.91
2023-04-09T12:30:52.022Z,15.85
2023-04-09T12:33:21.788Z,15.79
2023-04-09T12:35:49.539Z,15.72
2023-04-09T12:38:17.287Z,15.59
2023-04-09T12:40:45.407Z,15.52
2023-04-09T12:43:13.130Z,15.41
2023-04-09T12:45:40.918Z,15.51
2023-04-09T12:48:08.713Z,15.57
2023-04-09T12:50:37.903Z,15.40
2023-04-09T12:53:05.736Z,15.32
2023-04-09T12:55:33.725Z,15.20
2023-04-09T12:58:02.499Z,15.17
2023-04-09T13:00:31.242Z,15.08
2023-04-09T13:02:59.161Z,15.05
2023-04-09T13:05:27.032Z,15.07
2023-04-09T13:07:56.196Z,15.11
2023-04-09T13:10:24.022Z,15.13
2023-04-09T13:12:51.755Z,15.08
2023-04-09T13:15:19.535Z,15.17
2023-04-09T13:17:47.336Z,15.32
2023-04-09T13:20:15.421Z,15.37
2023-04-09T13:22:43.127Z,15.39
2023-04-09T13:25:14.401Z,15.54
2023-04-09T13:27:42.621Z,15.82
2023-04-09T13:30:10.780Z,16.92
2023-04-09T13:32:38.866Z,17.04
2023-04-09T13:35:07.919Z,16.72
2023-04-09T13:37:35.757Z,16.43
2023-04-09T13:40:04.049Z,16.35
2023-04-09T13:42:33.194Z,16.17
2023-04-09T13:45:01.009Z,16.18
2023-04-09T13:47:28.788Z,16.07
2023-04-09T13:49:56.625Z,15.95
2023-04-09T13:52:28.169Z,16.26
2023-04-09T13:54:57.280Z,16.13
2023-04-09T13:57:25.054Z,16.27
2023-04-09T13:59:54.262Z,16.13
2023-04-09T14:02:22.278Z,15.93
2023-04-09T14:04:50.212Z,15.79
2023-04-09T14:07:17.901Z,15.74
2023-04-09T14:09:45.744Z,15.64
2023-04-09T14:12:13.452Z,15.55
2023-04-09T14:14:41.187Z,15.46
2023-04-09T14:17:10.449Z,15.48
2023-04-09T14:19:39.112Z,15.64
2023-04-09T14:22:07.346Z,16.10
2023-04-09T14:24:39.867Z,16.38
2023-04-09T14:27:08.164Z,17.06
2023-04-09T14:29:36.521Z,17.73
2023-04-09T14:32:04.230Z,17.97
2023-04-09T14:34:33.300Z,18.26
2023-04-09T14:37:01.182Z,18.39
2023-04-09T14:39:28.877Z,18.57
2023-04-09T14:41:57.287Z,18.68
2023-04-09T14:44:26.375Z,18.66
2023-04-09T14:46:56.241Z,18.57
2023-04-09T14:49:24.066Z,17.95
2023-04-09T14:51:53.212Z,17.50
2023-04-09T14:54:21.171Z,17.24
2023-04-09T14:56:48.882Z,17.03
2023-04-09T14:59:16.653Z,16.87
2023-04-09T15:01:44.418Z,16.65
2023-04-09T15:04:14.117Z,16.60
2023-04-09T15:06:41.964Z,16.55
2023-04-09T15:09:11.103Z,16.58
2023-04-09T15:11:38.853Z,16.66
2023-04-09T15:14:06.677Z,16.60
2023-04-09T15:16:37.326Z,16.54
2023-04-09T15:19:05.378Z,16.50
2023-04-09T15:21:33.305Z,16.61
2023-04-09T15:24:01.155Z,16.76
2023-04-09T15:26:30.252Z,16.75
2023-04-09T15:29:03.061Z,16.82
2023-04-09T15:31:31.363Z,16.81
2023-04-09T15:33:59.154Z,16.83
2023-04-09T15:36:29.106Z,16.72
2023-04-09T15:38:56.923Z,16.70
2023-04-09T15:41:24.797Z,16.67
2023-04-09T15:43:54.728Z,16.51
2023-04-09T15:46:24.168Z,16.51
2023-04-09T15:48:52.123Z,16.42
2023-04-09T15:51:20.201Z,16.51
2023-04-09T15:53:47.932Z,16.57
2023-04-09T15:56:16.134Z,16.54
2023-04-09T15:58:44.374Z,16.50
2023-04-09T16:01:13.919Z,16.45
2023-04-09T16:03:41.802Z,16.36
2023-04-09T16:06:13.165Z,16.15
2023-04-09T16:08:41.407Z,16.01
2023-04-09T16:11:09.530Z,15.95
2023-04-09T16:13:37.526Z,15.93
2023-04-09T16:16:06.733Z,15.98
2023-04-09T16:18:36.087Z,15.82
2023-04-09T16:21:04.221Z,15.77
2023-04-09T16:23:32.964Z,15.82
2023-04-09T16:26:00.768Z,15.84
2023-04-09T16:28:28.650Z,15.89
2023-04-09T16:30:56.427Z,15.88
2023-04-09T16:33:24.140Z,15.89
2023-04-09T16:35:53.269Z,15.87
2023-04-09T16:38:21.058Z,15.85
2023-04-09T16:40:48.870Z,15.83
2023-04-09T16:43:16.656Z,15.87
2023-04-09T16:45:44.408Z,15.85
2023-04-09T16:48:13.469Z,15.81
2023-04-09T16:50:41.279Z,15.76
2023-04-09T16:53:10.498Z,15.71
2023-04-09T16:55:38.423Z,15.65
2023-04-09T16:58:06.182Z,15.57
2023-04-09T17:00:35.310Z,15.57
2023-04-09T17:03:03.153Z,15.52
2023-04-09T17:05:31.417Z,15.45
2023-04-09T17:07:59.248Z,15.36
2023-04-09T17:10:28.570Z,15.29
2023-04-09T17:12:56.400Z,15.23
2023-04-09T17:15:25.239Z,15.12
2023-04-09T17:17:53.698Z,15.08
2023-04-09T17:20:22.673Z,15.04
2023-04-09T17:22:50.498Z,14.96
2023-04-09T17:25:18.587Z,14.91
2023-04-09T17:27:50.383Z,14.86
2023-04-09T17:30:18.166Z,14.77
2023-04-09T17:32:46.131Z,14.72
2023-04-09T17:35:14.085Z,14.64
2023-04-09T17:37:41.865Z,14.57
2023-04-09T17:40:12.388Z,14.54
2023-04-09T17:42:40.807Z,14.44
2023-04-09T17:45:11.140Z,14.40
2023-04-09T17:47:40.934Z,14.37
2023-04-09T17:50:09.954Z,14.33
2023-04-09T17:52:38.725Z,14.27
2023-04-09T17:55:07.601Z,14.19
2023-04-09T17:57:35.669Z,14.12
2023-04-09T18:00:04.048Z,14.02
2023-04-09T18:02:33.638Z,13.99
2023-04-09T18:05:04.404Z,13.97
2023-04-09T18:07:35.353Z,13.90
2023-04-09T18:10:10.479Z,13.87
2023-04-09T18:12:38.205Z,13.84
2023-04-09T18:15:07.160Z,13.80
2023-04-09T18:17:36.314Z,13.70
2023-04-09T18:20:04.458Z,13.71
2023-04-09T18:22:32.204Z,13.71
2023-04-09T18:25:00.142Z,13.61
2023-04-09T18:27:27.898Z,13.55
2023-04-09T18:29:55.942Z,13.50
2023-04-09T18:32:23.714Z,13.40
2023-04-09T18:34:52.893Z,13.38
2023-04-09T18:37:21.830Z,13.22
2023-04-09T18:39:49.587Z,13.20
2023-04-09T18:42:17.388Z,13.15
2023-04-09T18:44:45.688Z,13.01
2023-04-09T18:47:13.618Z,12.94
2023-04-09T18:49:41.421Z,12.95
2023-04-09T18:52:10.815Z,12.91
2023-04-09T18:54:38.831Z,12.89
2023-04-09T18:57:07.000Z,12.83
2023-04-09T18:59:35.103Z,12.68
2023-04-09T19:02:05.090Z,12.54
2023-04-09T19:04:36.278Z,12.50
2023-04-09T19:07:04.422Z,12.44
2023-04-09T19:09:34.455Z,12.42
2023-04-09T19:12:02.681Z,12.37
2023-04-09T19:14:30.399Z,12.32
2023-04-09T19:16:58.769Z,12.26
2023-04-09T19:19:27.335Z,12.23
2023-04-09T19:21:55.062Z,12.26
2023-04-09T19:24:23.587Z,12.20
2023-04-09T19:26:53.466Z,12.15
2023-04-09T19:29:21.334Z,12.10
2023-04-09T19:31:49.040Z,12.10
2023-04-09T19:34:17.030Z,12.08
2023-04-09T19:36:44.774Z,12.14
2023-04-09T19:39:12.593Z,12.18
2023-04-09T19:41:40.653Z,12.09
2023-04-09T19:44:10.009Z,12.16
2023-04-09T19:46:37.906Z,12.14
2023-04-09T19:49:06.334Z,12.16
2023-04-09T19:51:34.159Z,12.09
2023-04-09T19:54:01.985Z,12.10
2023-04-09T19:56:29.752Z,12.03
2023-04-09T19:58:57.489Z,11.93
2023-04-09T20:01:26.858Z,11.91
2023-04-09T20:03:55.005Z,11.83
2023-04-09T20:06:22.911Z,11.78
2023-04-09T20:08:50.607Z,11.69
2023-04-09T20:11:19.107Z,11.65
2023-04-09T20:13:47.981Z,11.59
2023-04-09T20:16:16.117Z,11.57
2023-04-09T20:18:45.336Z,11.50
2023-04-09T20:21:14.479Z,11.46
2023-04-09T20:23:42.535Z,11.46
2023-04-09T20:26:11.231Z,11.44
2023-04-09T20:28:38.973Z,11.45
2023-04-09T20:31:07.764Z,11.42
2023-04-09T20:33:35.559Z,11.43
2023-04-09T20:36:05.014Z,11.45
2023-04-09T20:38:32.792Z,11.47
2023-04-09T20:41:00.697Z,11.41
2023-04-09T20:43:28.510Z,11.40
2023-04-09T20:45:56.365Z,11.39
2023-04-09T20:48:24.142Z,11.36
2023-04-09T20:50:52.382Z,11.31
2023-04-09T20:53:21.841Z,11.23
2023-04-09T20:55:50.732Z,11.20
2023-04-09T20:58:18.631Z,11.15
2023-04-09T21:00:46.621Z,11.11
2023-04-09T21:03:14.623Z,11.07
2023-04-09T21:05:42.674Z,11.03
2023-04-09T21:08:14.629Z,11.01
2023-04-09T21:10:43.684Z,10.98
2023-04-09T21:13:11.467Z,10.93
2023-04-09T21:15:39.212Z,10.90
2023-04-09T21:18:07.619Z,10.88
2023-04-09T21:20:35.580Z,10.83
2023-04-09T21:23:03.670Z,10.86
2023-04-09T21:25:31.437Z,10.88
2023-04-09T21:28:00.596Z,10.87
2023-04-09T21:30:28.976Z,10.84
2023-04-09T21:32:56.874Z,10.91
2023-04-09T21:35:24.580Z,10.95
2023-04-09T21:37:52.440Z,10.93
2023-04-09T21:40:20.120Z,10.95
2023-04-09T21:42:47.863Z,10.91
2023-04-09T21:45:17.507Z,10.85
2023-04-09T21:47:45.465Z,10.85
2023-04-09T21:50:13.457Z,10.86
2023-04-09T21:52:41.787Z,10.84
2023-04-09T21:55:10.703Z,10.83
2023-04-09T21:57:38.483Z,10.84
2023-04-09T22:00:09.314Z,10.81
2023-04-09T22:02:40.004Z,10.77
2023-04-09T22:05:08.386Z,10.82
2023-04-09T22:07:37.268Z,10.79
2023-04-09T22:10:05.671Z,10.79
2023-04-09T22:12:36.094Z,10.75
2023-04-09T22:15:04.757Z,10.72
2023-04-09T22:17:32.627Z,10.72
2023-04-09T22:20:01.790Z,10.64
2023-04-09T22:22:29.508Z,10.64
2023-04-09T22:24:57.315Z,10.65
2023-04-09T22:27:24.990Z,10.57
2023-04-09T22:29:52.744Z,10.58
2023-04-09T22:32:20.528Z,10.57
2023-04-09T22:34:48.282Z,10.58
2023-04-09T22:37:17.729Z,10.56
2023-04-09T22:39:45.479Z,10.50
2023-04-09T22:42:13.423Z,10.48
2023-04-09T22:44:41.434Z,10.42
2023-04-09T22:47:09.203Z,10.39
2023-04-09T22:49:36.920Z,10.38
2023-04-09T22:52:05.592Z,10.35
2023-04-09T22:54:34.690Z,10.33
2023-04-09T22:57:03.073Z,10.33
2023-04-09T22:59:39.711Z,10.28
2023-04-09T23:02:08.710Z,10.25
2023-04-09T23:04:36.823Z,10.28
2023-04-09T23:07:04.689Z,10.27
2023-04-09T23:09:33.909Z,10.18
2023-04-09T23:12:02.222Z,10.13
2023-04-09T23:14:30.000Z,10.09
2023-04-09T23:16:57.913Z,10.11
2023-04-09T23:19:25.720Z,10.14
2023-04-09T23:21:53.463Z,10.06
2023-04-09T23:24:21.186Z,9.86
2023-04-09T23:26:50.407Z,9.98
2023-04-09T23:29:18.152Z,10.01
2023-04-09T23:31:45.951Z,9.94
2023-04-09T23:34:13.961Z,9.91
2023-04-09T23:36:41.975Z,9.91
2023-04-09T23:39:09.800Z,9.85
2023-04-09T23:41:38.334Z,9.87
2023-04-09T23:44:07.422Z,9.83
2023-04-09T23:46:35.360Z,9.82
2023-04-09T23:49:03.171Z,9.88
2023-04-09T23:51:31.601Z,9.80
2023-04-09T23:54:00.379Z,9.83
2023-04-09T23:56:29.356Z,9.79
2023-04-09T23:58:57.068Z,9.76
